KBJJ/BJJ METAR and TAF weather

Enter ICAO airport designator
Station Type Date Time Source
KBJJ METAR 2019/02/23 16:56 UTC NOAA

KBJJ 231656Z AUTO 14010KT 7SM -RA BKN016 BKN020 OVC029 03/M01 A3010 RMK AO2 RAB49 SLP204 P0000 T00281006


Station Type Date Time Source
KBJJ Decoded METAR 2019/02/23 16:56 UTC NOAA

WOOSTER WAYNE COUNTY AIRPORT, OH, United States (KBJJ) 40-52N 81-53W 343M
Feb 23, 2019 - 11:56 AM EST / 2019.02.23 1656 UTC
Wind: from the SE (140 degrees) at 12 MPH (10 KT):0
Visibility: 7 mile(s):0
Sky conditions: overcast
Weather: light rain
Precipitation last hour: A trace
Temperature: 37.0 F (2.8 C)
Dew Point: 30.9 F (-0.6 C)
Relative Humidity: 78%
Pressure (altimeter): 30.1 in. Hg (1019 hPa)
ob: KBJJ 231656Z AUTO 14010KT 7SM -RA BKN016 BKN020 OVC029 03/M01 A3010 RMK AO2 RAB49 SLP204 P0000 T00281006
cycle: 17

Station Type Date Time Source
KBJJ TAF UTC NOAA

Error!


Example: see airport list